Mr Aries — V7ML4 — position and weather

sailwx.info

Track history (hours):
 
Tides and Currents Weather Stations Pressure Air Temp Water Temp Dewpoint Dewpoint Depression Visibility Wind Speed Wind Dir Waves Ship Positions

Mr Aries

Last reported at 2015-Nov-13 01:33 UTC. Time now 2016-Feb-13 04:42 UTC.
Position N 29°33' W 094°55'.
Warning: this ship's position is months out of date.

Length 183 m; draft 11.5 m.

Type: Ship. MMSI: 538002869.

Date/timePositionNaut miles runAvg speedWind from/ knotsBaromVisibWave heightAir tempDewpointWater temp
2015-Nov-13 01:33N 29°33' W 094°55'9 9.0
2015-Nov-13 00:33N 29°42' W 094°59'8 0.3
2015-Nov-11 17:28N 29°44' W 095°09'5 5.9
2015-Nov-11 16:33N 29°44' W 095°03'9 9.1
2015-Nov-11 15:33N 29°36' W 094°57'1111.2
2015-Nov-11 14:32N 29°26' W 094°50'  
2015-Nov-07 02:07N 29°29' W 094°51'611.6
2015-Nov-07 01:33N 29°34' W 094°55'1010.0
2015-Nov-07 00:33N 29°43' W 095°01'6 6.0
2015-Nov-06 23:32N 29°44' W 095°08'4 0.1
2015-Nov-05 20:18N 29°44' W 095°13'4 5.8
2015-Nov-05 19:33N 29°44' W 095°08'6 6.3
2015-Nov-05 18:33N 29°42' W 095°01'1211.8
2015-Nov-05 17:33N 29°32' W 094°54'22 9.9
2015-Nov-05 15:23N 29°18' W 094°35'3 3.7
2015-Nov-05 14:33N 29°21' W 094°33'0 0.0
2015-Nov-05 00:15N 29°21' W 094°33'2 0.2
2015-Nov-04 17:19N 29°19' W 094°33'  
Track history (hours):
 
Tides and Currents Weather Stations Pressure Air Temp Water Temp Dewpoint Dewpoint Depression Visibility Wind Speed Wind Dir Waves Ship Positions

Mr Aries

Last reported at 2015-Nov-13 01:33 UTC. Time now 2016-Feb-13 04:42 UTC.
Position N 29°33' W 094°55'.
Warning: this ship's position is months out of date.

Length 183 m; draft 11.5 m.

Type: Ship. MMSI: 538002869.

Date/timePositionNaut miles runAvg speedWind from/ knotsBaromVisibWave heightAir tempDewpointWater temp
2015-Nov-13 01:33N 29°33' W 094°55'9 9.0
2015-Nov-13 00:33N 29°42' W 094°59'8 0.3
2015-Nov-11 17:28N 29°44' W 095°09'5 5.9
2015-Nov-11 16:33N 29°44' W 095°03'9 9.1
2015-Nov-11 15:33N 29°36' W 094°57'1111.2
2015-Nov-11 14:32N 29°26' W 094°50'  
2015-Nov-07 02:07N 29°29' W 094°51'611.6
2015-Nov-07 01:33N 29°34' W 094°55'1010.0
2015-Nov-07 00:33N 29°43' W 095°01'6 6.0
2015-Nov-06 23:32N 29°44' W 095°08'4 0.1
2015-Nov-05 20:18N 29°44' W 095°13'4 5.8
2015-Nov-05 19:33N 29°44' W 095°08'6 6.3
2015-Nov-05 18:33N 29°42' W 095°01'1211.8
2015-Nov-05 17:33N 29°32' W 094°54'22 9.9
2015-Nov-05 15:23N 29°18' W 094°35'3 3.7
2015-Nov-05 14:33N 29°21' W 094°33'0 0.0
2015-Nov-05 00:15N 29°21' W 094°33'2 0.2
2015-Nov-04 17:19N 29°19' W 094°33'  

Dump ship's entire track history